Time;durP1;ratioP1;P1;durP2;ratioP2;P2;SDS_P1;SDS_P2;PMS_P1;PMS_P2;Temp;Humidity;BMP_temperature;BMP_pressure;BME280_temperature;BME280_humidity;BME280_pressure;Samples;Min_cycle;Max_cycle;Signal;HPM_P1;HPM_P2
2024/02/13 00:01:56;;;;;;;5.82;2.20;;;5.60;99.90;;;;;;5053985;28;20033;-56
2024/02/13 00:04:21;;;;;;;9.30;2.33;;;5.60;99.90;;;;;;5053847;28;20035;-55
2024/02/13 00:06:47;;;;;;;8.75;3.05;;;5.60;99.90;;;;;;5053794;28;20036;-39
2024/02/13 00:09:13;;;;;;;8.75;2.10;;;5.60;99.90;;;;;;5054074;28;20025;-39
2024/02/13 00:11:40;;;;;;;4.95;2.00;;;5.60;99.90;;;;;;5053532;28;20501;-39
2024/02/13 00:14:07;;;;;;;12.25;2.40;;;5.60;99.90;;;;;;5037489;28;20473;-39
2024/02/13 00:16:37;;;;;;;3.45;2.38;;;5.50;99.90;;;;;;5033699;28;20032;-39
2024/02/13 00:19:04;;;;;;;4.22;2.67;;;5.50;99.90;;;;;;5033688;28;20026;-39
2024/02/13 00:21:31;;;;;;;5.35;3.03;;;5.50;99.90;;;;;;5047964;28;20108;-38
2024/02/13 00:23:57;;;;;;;7.65;3.17;;;5.50;99.90;;;;;;5052432;28;20492;-39
2024/02/13 00:26:23;;;;;;;8.90;2.92;;;5.50;99.90;;;;;;5053453;28;20492;-39
2024/02/13 00:28:49;;;;;;;10.05;3.90;;;5.50;99.90;;;;;;5053604;28;20021;-39
2024/02/13 00:31:14;;;;;;;12.95;3.55;;;5.50;99.90;;;;;;5035727;28;20109;-41
2024/02/13 00:33:40;;;;;;;18.58;3.90;;;5.50;99.90;;;;;;5048571;28;20248;-38
2024/02/13 00:36:11;;;;;;;12.38;4.53;;;5.50;99.90;;;;;;5053239;28;20071;-39
2024/02/13 00:38:40;;;;;;;9.82;3.92;;;5.50;99.90;;;;;;5053192;28;20021;-39
2024/02/13 00:41:06;;;;;;;12.30;4.25;;;5.50;99.90;;;;;;5053129;28;20478;-40
2024/02/13 00:43:31;;;;;;;9.82;4.28;;;5.50;99.90;;;;;;5053129;28;20087;-39
2024/02/13 00:45:57;;;;;;;11.32;5.05;;;5.50;99.90;;;;;;5053068;28;20082;-39
2024/02/13 00:48:23;;;;;;;14.60;5.43;;;5.50;99.90;;;;;;5034686;28;20034;-39
2024/02/13 00:50:49;;;;;;;8.52;4.72;;;5.50;99.90;;;;;;5031730;28;20092;-43
2024/02/13 00:53:16;;;;;;;11.27;5.43;;;5.50;99.90;;;;;;5035421;28;20080;-38
2024/02/13 00:55:45;;;;;;;18.83;5.82;;;5.60;99.90;;;;;;5033044;28;20024;-39
2024/02/13 00:58:11;;;;;;;12.45;6.00;;;5.50;99.90;;;;;;5032492;28;20440;-38
2024/02/13 01:00:40;;;;;;;14.57;5.25;;;5.50;99.90;;;;;;5032916;28;20021;-41
2024/02/13 01:03:06;;;;;;;10.07;5.35;;;5.50;99.90;;;;;;5033037;28;20025;-39
2024/02/13 01:05:32;;;;;;;9.48;5.40;;;5.50;99.90;;;;;;5052225;28;20021;-39
2024/02/13 01:07:58;;;;;;;9.45;4.90;;;5.60;99.90;;;;;;5052866;28;20079;-39
2024/02/13 01:10:24;;;;;;;10.48;5.68;;;5.60;99.90;;;;;;5052434;28;20071;-47
2024/02/13 01:12:50;;;;;;;8.52;5.55;;;5.60;99.90;;;;;;5052866;28;20041;-39
2024/02/13 01:15:16;;;;;;;9.18;5.38;;;5.60;99.90;;;;;;5035578;28;20021;-38
2024/02/13 01:17:42;;;;;;;11.77;6.22;;;5.60;99.90;;;;;;5031877;28;20458;-38
2024/02/13 01:20:11;;;;;;;6.93;5.32;;;5.60;99.90;;;;;;5051322;28;20452;-38
2024/02/13 01:22:37;;;;;;;9.20;5.80;;;5.60;99.90;;;;;;5041334;28;20380;-40
2024/02/13 01:25:05;;;;;;;12.95;5.43;;;5.60;99.90;;;;;;5037595;28;20462;-38
2024/02/13 01:27:34;;;;;;;16.60;6.85;;;5.50;99.90;;;;;;5032656;28;20487;-38
2024/02/13 01:29:59;;;;;;;12.07;5.05;;;5.50;99.90;;;;;;5032565;28;20017;-39
2024/02/13 01:32:26;;;;;;;8.18;5.75;;;5.50;99.90;;;;;;5050739;28;20535;-40
2024/02/13 01:34:53;;;;;;;18.13;6.83;;;5.50;99.90;;;;;;5038234;28;20026;-39
2024/02/13 01:37:19;;;;;;;10.27;6.53;;;5.60;99.90;;;;;;5032407;28;20026;-40
2024/02/13 01:39:45;;;;;;;11.07;6.65;;;5.50;99.90;;;;;;5045108;28;20029;-40
2024/02/13 01:42:11;;;;;;;12.07;6.20;;;5.60;99.90;;;;;;5051583;28;20029;-38
2024/02/13 01:44:37;;;;;;;10.25;5.65;;;5.60;99.90;;;;;;5052428;28;20055;-41
2024/02/13 01:47:04;;;;;;;16.50;6.57;;;5.50;99.90;;;;;;5052613;28;20017;-39
2024/02/13 01:49:30;;;;;;;9.52;5.85;;;5.50;99.90;;;;;;5034292;28;20029;-56
2024/02/13 01:51:58;;;;;;;8.45;4.90;;;5.50;99.90;;;;;;5032335;28;20443;-38
2024/02/13 01:54:26;;;;;;;;;;;5.50;99.90;;;;;;5032782;28;20018;-38
2024/02/13 01:56:52;;;;;;;;;;;5.40;99.90;;;;;;5033597;28;20301;-61
2024/02/13 01:59:18;;;;;;;12.20;6.50;;;5.40;99.90;;;;;;5031169;28;19913;-38
2024/02/13 02:01:43;;;;;;;9.50;5.63;;;5.40;99.90;;;;;;5032528;28;20149;-38
2024/02/13 02:04:10;;;;;;;13.50;5.72;;;5.40;99.90;;;;;;5031695;28;20029;-44
2024/02/13 02:06:36;;;;;;;10.10;6.00;;;5.40;99.90;;;;;;5031392;28;20025;-39
2024/02/13 02:09:03;;;;;;;7.75;5.75;;;5.40;99.90;;;;;;5033145;28;20398;-38
2024/02/13 02:11:30;;;;;;;17.17;6.03;;;5.50;99.90;;;;;;5036039;28;20038;-37
2024/02/13 02:13:57;;;;;;;16.40;6.27;;;5.40;99.90;;;;;;5048337;28;20260;-38
2024/02/13 02:16:23;;;;;;;14.57;6.22;;;5.40;99.90;;;;;;5055931;28;20045;-53
2024/02/13 02:18:48;;;;;;;11.13;6.47;;;5.40;99.90;;;;;;5053803;28;20032;-55
2024/02/13 02:21:14;;;;;;;11.30;6.10;;;5.40;99.90;;;;;;5056189;28;20103;-39
2024/02/13 02:23:40;;;;;;;10.52;6.32;;;5.50;99.90;;;;;;5051862;28;20034;-42
2024/02/13 02:26:10;;;;;;;13.68;5.38;;;5.50;99.90;;;;;;5047585;28;20021;-39
2024/02/13 02:28:36;;;;;;;13.80;6.60;;;5.50;99.90;;;;;;5039660;28;20021;-38
2024/02/13 02:31:02;;;;;;;13.77;6.63;;;5.50;99.90;;;;;;5043284;28;20107;-39
2024/02/13 02:33:28;;;;;;;11.93;5.78;;;5.50;99.90;;;;;;5035632;28;20045;-39
2024/02/13 02:35:54;;;;;;;11.80;6.88;;;5.50;99.90;;;;;;5035525;28;20389;-38
2024/02/13 02:38:20;;;;;;;11.15;6.28;;;5.50;99.90;;;;;;5035587;28;20026;-54
2024/02/13 02:40:47;;;;;;;12.88;6.28;;;5.50;99.90;;;;;;5035757;28;20489;-54
2024/02/13 02:43:13;;;;;;;17.02;7.47;;;5.50;99.90;;;;;;5035466;28;20143;-53
2024/02/13 02:45:39;;;;;;;12.65;5.85;;;5.40;99.90;;;;;;5040241;28;20025;-51
2024/02/13 02:48:05;;;;;;;7.88;5.80;;;5.50;99.90;;;;;;5037667;28;20367;-51
2024/02/13 02:50:31;;;;;;;11.32;6.25;;;5.40;99.90;;;;;;5035054;28;20061;-40
2024/02/13 02:52:57;;;;;;;14.65;6.82;;;5.50;99.90;;;;;;5055245;28;20513;-38
2024/02/13 02:55:23;;;;;;;11.73;6.82;;;5.50;99.90;;;;;;5054278;28;20482;-38
2024/02/13 02:57:49;;;;;;;15.60;7.47;;;5.50;99.90;;;;;;5055177;28;20024;-39
2024/02/13 03:00:18;;;;;;;8.38;5.43;;;5.50;99.90;;;;;;5055089;28;20021;-37
2024/02/13 03:02:46;;;;;;;14.82;6.20;;;5.50;99.90;;;;;;5048970;28;20477;-39
2024/02/13 03:05:11;;;;;;;16.57;5.10;;;5.50;99.90;;;;;;5035679;28;20549;-40
2024/02/13 03:07:37;;;;;;;29.83;7.78;;;5.50;99.90;;;;;;5035082;28;20056;-39
2024/02/13 03:10:08;;;;;;;15.80;7.07;;;5.50;99.90;;;;;;5034689;28;20038;-40
2024/02/13 03:12:35;;;;;;;15.98;6.53;;;5.50;99.90;;;;;;5051052;28;20029;-39
2024/02/13 03:15:01;;;;;;;14.57;6.82;;;5.50;99.90;;;;;;5052802;28;20025;-38
2024/02/13 03:17:26;;;;;;;24.33;7.70;;;5.50;99.90;;;;;;5034065;28;20017;-38
2024/02/13 03:19:52;;;;;;;15.77;7.65;;;5.50;99.90;;;;;;5034185;28;20425;-37
2024/02/13 03:22:19;;;;;;;11.90;6.18;;;5.50;99.90;;;;;;5051407;28;20021;-40
2024/02/13 03:24:45;;;;;;;12.15;7.38;;;5.50;99.90;;;;;;5040951;28;20112;-40
2024/02/13 03:27:11;;;;;;;14.80;6.20;;;5.40;99.90;;;;;;5034530;28;20056;-38
2024/02/13 03:29:37;;;;;;;15.18;7.85;;;5.40;99.90;;;;;;5035123;28;20371;-38
2024/02/13 03:32:03;;;;;;;17.05;7.55;;;5.40;99.90;;;;;;5033219;28;20029;-52
2024/02/13 03:34:29;;;;;;;15.55;7.43;;;5.40;99.90;;;;;;5035106;28;20511;-51
2024/02/13 03:36:56;;;;;;;16.15;6.75;;;5.30;99.90;;;;;;5034246;28;20104;-53
2024/02/13 03:39:23;;;;;;;11.38;6.35;;;5.40;99.90;;;;;;5039238;28;20534;-51
2024/02/13 03:41:49;;;;;;;16.63;6.45;;;5.40;99.90;;;;;;5049055;28;20517;-54
2024/02/13 03:44:14;;;;;;;12.10;6.78;;;5.40;99.90;;;;;;5049241;28;20032;-53
2024/02/13 03:46:44;;;;;;;12.75;6.05;;;5.40;99.90;;;;;;5052791;28;20116;-56
2024/02/13 03:49:10;;;;;;;12.63;6.78;;;5.40;99.90;;;;;;5048783;28;20035;-43
2024/02/13 03:51:37;;;;;;;13.77;6.97;;;5.40;99.90;;;;;;5037130;28;20477;-38
2024/02/13 03:54:04;;;;;;;11.55;6.45;;;5.40;99.90;;;;;;5041422;28;20396;-38
2024/02/13 03:56:30;;;;;;;11.07;6.00;;;5.40;99.90;;;;;;5034345;28;20024;-38
2024/02/13 03:58:56;;;;;;;15.05;6.13;;;5.40;99.90;;;;;;5033652;28;20017;-38
2024/02/13 04:01:22;;;;;;;15.70;6.70;;;5.40;99.90;;;;;;5036560;28;20036;-38
2024/02/13 04:03:48;;;;;;;11.60;6.28;;;5.40;99.90;;;;;;5034417;28;20029;-41
2024/02/13 04:06:13;;;;;;;11.68;7.07;;;5.40;99.90;;;;;;5035108;28;20444;-41
2024/02/13 04:08:44;;;;;;;11.35;6.35;;;5.40;99.90;;;;;;5041915;28;20021;-39
2024/02/13 04:11:10;;;;;;;14.63;6.03;;;5.30;99.90;;;;;;5036078;28;20033;-55
2024/02/13 04:13:35;;;;;;;15.40;7.63;;;5.30;99.90;;;;;;5038456;28;20070;-53
2024/02/13 04:16:01;;;;;;;13.25;6.53;;;5.30;99.90;;;;;;5043295;28;20025;-54
2024/02/13 04:18:27;;;;;;;9.13;6.13;;;5.30;99.90;;;;;;5032917;28;20497;-51
2024/02/13 04:20:52;;;;;;;11.20;5.97;;;5.20;99.90;;;;;;5034271;28;20033;-38
2024/02/13 04:23:18;;;;;;;14.60;6.47;;;5.30;99.90;;;;;;5034340;28;20482;-44
2024/02/13 04:25:43;;;;;;;10.95;4.75;;;5.30;99.90;;;;;;5045081;28;20044;-41
2024/02/13 04:28:09;;;;;;;17.42;6.80;;;5.20;99.90;;;;;;5037159;28;20108;-53
2024/02/13 04:30:40;;;;;;;10.35;5.88;;;5.20;99.90;;;;;;5033815;28;20021;-54
2024/02/13 04:33:09;;;;;;;12.68;6.38;;;5.20;99.90;;;;;;5033395;28;20029;-54
2024/02/13 04:35:36;;;;;;;9.88;6.03;;;5.20;99.90;;;;;;5051490;28;20044;-53
2024/02/13 04:38:03;;;;;;;13.10;5.35;;;5.20;99.90;;;;;;5032434;28;20116;-54
2024/02/13 04:40:29;;;;;;;25.63;5.97;;;5.10;99.90;;;;;;5033269;28;20108;-43
2024/02/13 04:42:54;;;;;;;17.80;6.18;;;5.10;99.90;;;;;;5033263;28;20096;-56
2024/02/13 04:45:23;;;;;;;13.80;5.75;;;5.20;99.90;;;;;;5033446;28;20040;-52
2024/02/13 04:47:48;;;;;;;13.23;5.75;;;5.20;99.90;;;;;;5034634;28;20032;-53
2024/02/13 04:50:14;;;;;;;15.45;6.72;;;5.20;99.90;;;;;;5052939;28;20025;-39
2024/02/13 04:52:40;;;;;;;17.70;5.68;;;5.10;99.90;;;;;;5052217;28;20025;-39
2024/02/13 04:55:06;;;;;;;23.73;6.45;;;5.10;99.90;;;;;;5033025;28;20382;-38
2024/02/13 04:57:33;;;;;;;11.10;6.10;;;5.20;99.90;;;;;;5033034;28;20390;-38
2024/02/13 05:00:02;;;;;;;11.40;5.82;;;5.20;99.90;;;;;;5043997;28;20496;-54
2024/02/13 05:02:32;;;;;;;10.60;5.55;;;5.20;99.90;;;;;;5033710;28;20017;-39
2024/02/13 05:07:44;;;;;;;12.18;6.18;;;5.20;99.90;;;;;;5052002;28;20040;-58
2024/02/13 05:10:11;;;;;;;10.63;6.00;;;5.20;99.90;;;;;;5046304;28;20605;-54
2024/02/13 05:12:37;;;;;;;11.60;6.32;;;5.20;99.90;;;;;;5036202;28;20048;-53
2024/02/13 05:15:04;;;;;;;19.40;6.38;;;5.20;99.90;;;;;;5052556;28;20102;-54
2024/02/13 05:17:30;;;;;;;14.02;4.72;;;5.20;99.90;;;;;;5051461;28;20013;-54
2024/02/13 05:19:56;;;;;;;11.45;6.15;;;5.20;99.90;;;;;;5042454;28;20112;-54
2024/02/13 05:22:22;;;;;;;12.55;6.30;;;5.20;99.90;;;;;;5051935;28;20041;-51
2024/02/13 05:24:48;;;;;;;10.93;5.93;;;5.20;99.90;;;;;;5044446;28;20106;-52
2024/02/13 05:27:14;;;;;;;17.80;6.05;;;5.20;99.90;;;;;;5047506;28;20493;-53
2024/02/13 05:29:43;;;;;;;11.80;6.00;;;5.20;99.90;;;;;;5032627;28;20021;-54
2024/02/13 05:32:09;;;;;;;16.52;5.28;;;5.10;99.90;;;;;;5032478;28;20497;-52
2024/02/13 05:34:36;;;;;;;15.30;6.22;;;5.10;99.90;;;;;;5064087;28;20049;-54
2024/02/13 05:37:02;;;;;;;9.18;5.85;;;5.10;99.90;;;;;;5032519;28;20037;-54
2024/02/13 05:39:29;;;;;;;12.90;6.10;;;5.10;99.90;;;;;;5032662;28;20382;-54
2024/02/13 05:41:55;;;;;;;13.45;6.40;;;5.00;99.90;;;;;;5045283;28;20103;-53
2024/02/13 05:44:24;;;;;;;17.38;5.78;;;5.10;99.90;;;;;;5044856;28;20037;-54
2024/02/13 05:46:55;;;;;;;13.43;5.80;;;5.10;99.90;;;;;;5050559;28;20035;-54
2024/02/13 05:49:21;;;;;;;17.95;5.78;;;5.00;99.90;;;;;;5039204;28;20485;-54
2024/02/13 05:51:47;;;;;;;13.30;6.80;;;5.00;99.90;;;;;;5036395;28;20033;-53
2024/02/13 05:54:14;;;;;;;11.10;6.25;;;5.00;99.90;;;;;;5044882;28;20453;-55
2024/02/13 05:56:43;;;;;;;17.13;5.95;;;5.00;99.90;;;;;;5050030;28;20032;-51
2024/02/13 05:59:09;;;;;;;16.20;7.10;;;5.00;99.90;;;;;;5034993;28;20033;-52
2024/02/13 06:01:35;;;;;;;12.07;7.10;;;5.10;99.90;;;;;;5044022;28;20021;-53
2024/02/13 06:04:05;;;;;;;17.13;5.75;;;5.10;99.90;;;;;;5055173;28;20108;-53
2024/02/13 06:06:33;;;;;;;14.75;6.60;;;5.10;99.90;;;;;;5056178;28;20477;-53
2024/02/13 06:08:58;;;;;;;11.75;5.88;;;5.10;99.90;;;;;;5053945;28;20021;-51
2024/02/13 06:11:25;;;;;;;17.85;7.25;;;5.10;99.90;;;;;;5054717;28;20187;-52
2024/02/13 06:13:50;;;;;;;11.35;5.75;;;5.10;99.90;;;;;;5056217;28;20461;-52
2024/02/13 06:16:17;;;;;;;11.13;6.20;;;5.10;99.90;;;;;;5036232;28;20056;-53
2024/02/13 06:18:46;;;;;;;9.65;6.13;;;5.10;99.90;;;;;;5038666;28;20032;-53
2024/02/13 06:21:12;;;;;;;17.50;5.80;;;5.10;99.90;;;;;;5036164;28;20474;-53
2024/02/13 06:23:37;;;;;;;14.48;5.97;;;5.10;99.90;;;;;;5039530;28;20017;-53
2024/02/13 06:26:03;;;;;;;8.50;5.13;;;5.20;99.90;;;;;;5055702;28;20400;-50
2024/02/13 06:28:29;;;;;;;21.40;5.80;;;5.20;99.90;;;;;;5046853;28;20029;-53
2024/02/13 06:30:55;;;;;;;14.73;5.35;;;5.10;99.90;;;;;;5054339;28;20032;-53
2024/02/13 06:33:21;;;;;;;15.63;6.88;;;5.10;99.90;;;;;;5047783;28;20014;-53
2024/02/13 06:35:46;;;;;;;16.40;5.50;;;5.10;99.90;;;;;;5045062;28;20086;-53
2024/02/13 06:38:12;;;;;;;15.50;5.13;;;5.20;99.90;;;;;;5054194;28;20017;-52
2024/02/13 06:40:38;;;;;;;12.93;5.80;;;5.20;99.90;;;;;;5055393;28;20033;-54
2024/02/13 06:43:04;;;;;;;17.65;5.65;;;5.20;99.90;;;;;;5054669;28;20039;-58
2024/02/13 06:45:30;;;;;;;12.85;5.43;;;5.10;99.90;;;;;;5045146;28;20025;-54
2024/02/13 06:47:56;;;;;;;10.57;5.18;;;5.10;99.90;;;;;;5036677;28;20029;-38
2024/02/13 06:50:23;;;;;;;12.38;6.25;;;5.00;99.90;;;;;;5046771;28;20065;-39
2024/02/13 06:52:52;;;;;;;13.10;5.53;;;5.10;99.90;;;;;;5041543;28;20028;-66
2024/02/13 06:55:19;;;;;;;20.02;6.13;;;5.10;99.90;;;;;;5051284;28;20547;-39
2024/02/13 06:57:45;;;;;;;11.30;4.82;;;5.10;99.90;;;;;;5041073;28;20021;-54
2024/02/13 07:00:13;;;;;;;13.45;5.68;;;5.10;99.90;;;;;;5038393;28;20552;-53
2024/02/13 07:02:40;;;;;;;13.65;5.50;;;5.00;99.90;;;;;;5047925;28;20032;-51
2024/02/13 07:05:06;;;;;;;8.40;4.82;;;5.00;99.90;;;;;;5036780;28;20097;-53
2024/02/13 07:07:32;;;;;;;7.85;5.03;;;5.10;99.90;;;;;;5035278;28;20025;-54
2024/02/13 07:09:57;;;;;;;16.30;5.47;;;5.10;99.90;;;;;;5048453;28;20462;-53
2024/02/13 07:12:23;;;;;;;17.58;6.60;;;5.10;99.90;;;;;;5054612;28;20041;-53
2024/02/13 07:14:51;;;;;;;13.90;4.95;;;5.10;99.90;;;;;;5046290;28;20765;-52
2024/02/13 07:17:16;;;;;;;10.20;5.50;;;5.10;99.90;;;;;;5074696;28;20032;-52
2024/02/13 07:19:42;;;;;;;15.45;4.90;;;5.10;99.90;;;;;;5051382;28;20021;-54
2024/02/13 07:22:09;;;;;;;14.60;4.88;;;5.10;99.90;;;;;;5040859;28;20068;-52
2024/02/13 07:24:38;;;;;;;13.90;4.78;;;5.10;99.90;;;;;;5042594;28;20441;-53
2024/02/13 07:27:04;;;;;;;10.15;5.53;;;5.10;99.90;;;;;;5038350;28;20503;-52
2024/02/13 07:29:31;;;;;;;13.38;5.13;;;5.10;99.90;;;;;;5041244;28;20056;-54
2024/02/13 07:31:57;;;;;;;10.73;4.38;;;5.10;99.90;;;;;;5033751;28;20025;-53
2024/02/13 07:34:22;;;;;;;14.60;5.70;;;5.10;99.90;;;;;;5046927;28;20025;-55
2024/02/13 07:36:48;;;;;;;11.73;5.35;;;5.10;99.90;;;;;;5052633;28;20413;-53
2024/02/13 07:39:14;;;;;;;12.80;4.65;;;5.10;99.90;;;;;;5045385;28;20022;-54
2024/02/13 07:41:41;;;;;;;13.38;5.15;;;5.10;99.90;;;;;;5051250;28;20029;-52
2024/02/13 07:44:07;;;;;;;13.32;4.90;;;5.10;99.90;;;;;;5041557;28;20024;-53
2024/02/13 07:46:33;;;;;;;14.70;4.88;;;5.10;99.90;;;;;;5034092;28;20038;-54
2024/02/13 07:48:58;;;;;;;13.75;5.20;;;5.20;99.90;;;;;;5035342;28;20789;-55
2024/02/13 07:51:24;;;;;;;14.40;5.07;;;5.20;99.90;;;;;;5049968;28;20054;-54
2024/02/13 07:53:50;;;;;;;16.13;4.70;;;5.30;99.90;;;;;;5039424;28;20033;-54
2024/02/13 07:56:18;;;;;;;11.13;4.90;;;5.30;99.90;;;;;;5044064;28;20027;-54
2024/02/13 07:58:44;;;;;;;11.20;4.18;;;5.40;99.90;;;;;;5036992;28;20028;-56
2024/02/13 08:01:10;;;;;;;16.92;5.22;;;5.40;99.90;;;;;;5041090;28;20505;-54
2024/02/13 08:03:37;;;;;;;8.98;5.35;;;5.40;99.90;;;;;;5038916;28;20029;-54
2024/02/13 08:06:03;;;;;;;7.47;4.65;;;5.40;99.90;;;;;;5042114;28;20061;-53
2024/02/13 08:08:30;;;;;;;8.85;4.15;;;5.40;99.90;;;;;;5037594;28;20033;-53
2024/02/13 08:10:57;;;;;;;9.13;3.67;;;5.50;99.90;;;;;;5034863;28;20041;-51
2024/02/13 08:13:22;;;;;;;9.20;4.07;;;5.50;99.90;;;;;;5019348;28;20013;-66
2024/02/13 08:15:48;;;;;;;13.15;3.80;;;5.40;99.90;;;;;;5038269;28;20029;-54
2024/02/13 08:18:14;;;;;;;11.63;3.60;;;5.50;99.90;;;;;;5039443;28;20029;-56
2024/02/13 08:20:40;;;;;;;12.77;3.70;;;5.60;99.90;;;;;;5045215;28;20025;-54
2024/02/13 08:23:06;;;;;;;13.35;4.28;;;5.60;99.90;;;;;;5052758;28;20036;-54
2024/02/13 08:25:32;;;;;;;13.32;3.60;;;5.60;99.90;;;;;;5037221;28;20014;-54
2024/02/13 08:27:59;;;;;;;8.73;3.78;;;5.70;99.90;;;;;;5047880;28;20029;-54
2024/02/13 08:30:26;;;;;;;11.30;3.88;;;5.60;99.90;;;;;;5045977;28;20526;-52
2024/02/13 08:32:51;;;;;;;11.52;4.10;;;5.70;99.90;;;;;;5033088;28;20079;-54
2024/02/13 08:35:19;;;;;;;8.85;3.42;;;5.70;99.90;;;;;;5038871;28;20104;-54
2024/02/13 08:37:45;;;;;;;8.85;3.42;;;5.80;99.90;;;;;;5051637;28;20028;-55
2024/02/13 08:40:14;;;;;;;9.32;3.60;;;5.80;99.90;;;;;;5053226;28;20025;-54
2024/02/13 08:42:40;;;;;;;8.98;3.42;;;5.90;99.90;;;;;;5044540;28;20476;-55
2024/02/13 08:45:06;;;;;;;10.57;3.20;;;5.90;99.90;;;;;;5034115;28;20096;-55
2024/02/13 08:47:32;;;;;;;18.70;3.92;;;6.00;99.90;;;;;;5033292;28;20021;-55
2024/02/13 08:49:57;;;;;;;10.80;3.20;;;6.00;99.90;;;;;;5033839;28;20032;-38
2024/02/13 08:52:23;;;;;;;8.60;3.08;;;6.20;99.90;;;;;;5039081;28;20026;-40
2024/02/13 08:54:49;;;;;;;12.43;3.67;;;6.20;99.90;;;;;;5033230;28;20031;-41
2024/02/13 08:57:15;;;;;;;11.07;3.38;;;6.30;99.90;;;;;;5033230;28;20020;-40
2024/02/13 08:59:41;;;;;;;12.73;3.20;;;6.30;99.90;;;;;;5033961;28;20049;-40
2024/02/13 09:02:10;;;;;;;5.05;2.40;;;6.30;99.90;;;;;;5036624;28;20021;-40
2024/02/13 09:04:36;;;;;;;8.13;2.90;;;6.40;99.90;;;;;;5032929;28;20025;-39
2024/02/13 09:07:03;;;;;;;9.95;3.42;;;6.50;99.90;;;;;;5048983;28;20096;-46
2024/02/13 09:09:32;;;;;;;7.28;2.65;;;6.60;99.90;;;;;;5037710;28;20022;-39
2024/02/13 09:12:02;;;;;;;6.53;3.08;;;6.60;99.90;;;;;;5032655;28;20088;-38
2024/02/13 09:14:31;;;;;;;13.88;3.40;;;6.60;99.90;;;;;;5033167;28;20412;-40
2024/02/13 09:16:59;;;;;;;12.18;3.72;;;6.70;99.90;;;;;;5048120;28;20481;-38
2024/02/13 09:19:28;;;;;;;10.75;2.60;;;6.70;99.90;;;;;;5050117;28;20025;-38
2024/02/13 09:21:53;;;;;;;7.10;3.45;;;6.80;99.90;;;;;;5032029;28;20534;-38
2024/02/13 09:24:19;;;;;;;6.45;2.63;;;6.80;99.90;;;;;;5032702;28;20064;-53
2024/02/13 09:26:45;;;;;;;8.00;3.10;;;6.90;99.90;;;;;;5031841;28;20018;-54
2024/02/13 09:29:11;;;;;;;6.78;2.38;;;7.00;99.90;;;;;;5035008;28;20033;-54
2024/02/13 09:31:36;;;;;;;4.43;2.65;;;7.00;99.90;;;;;;5039821;28;20367;-53
2024/02/13 09:34:02;;;;;;;6.75;2.40;;;7.00;99.90;;;;;;5042113;28;20032;-54
2024/02/13 09:36:28;;;;;;;5.78;2.72;;;7.00;99.90;;;;;;5040883;28;20418;-53
2024/02/13 09:38:54;;;;;;;6.90;3.05;;;7.00;99.90;;;;;;5047495;28;20045;-55
2024/02/13 09:41:20;;;;;;;5.25;2.25;;;7.00;99.90;;;;;;5032518;28;20061;-55
2024/02/13 09:43:46;;;;;;;2.50;2.13;;;7.00;99.90;;;;;;5031364;28;20032;-53
2024/02/13 09:46:16;;;;;;;5.90;2.58;;;7.10;99.90;;;;;;5032560;28;20025;-54
2024/02/13 09:48:46;;;;;;;10.10;2.30;;;7.10;99.90;;;;;;5032612;28;20051;-54
2024/02/13 09:51:19;;;;;;;4.00;2.67;;;7.20;99.90;;;;;;5033022;28;20449;-52
2024/02/13 09:53:47;;;;;;;3.97;2.40;;;7.30;99.90;;;;;;5032518;28;20077;-55
2024/02/13 09:56:14;;;;;;;9.38;2.53;;;7.30;99.90;;;;;;5032509;28;20037;-60
2024/02/13 09:58:41;;;;;;;4.18;2.30;;;7.30;99.90;;;;;;5045433;28;20032;-55
2024/02/13 10:01:07;;;;;;;4.60;2.97;;;7.30;99.90;;;;;;5050767;28;20029;-52
2024/02/13 10:03:38;;;;;;;10.60;3.20;;;7.30;99.90;;;;;;5038231;28;20040;-55
2024/02/13 10:06:06;;;;;;;9.77;2.92;;;7.40;99.90;;;;;;5051229;28;20021;-54
2024/02/13 10:08:34;;;;;;;5.00;1.92;;;7.50;99.90;;;;;;5040316;28;20025;-57
2024/02/13 10:11:04;;;;;;;9.20;2.65;;;7.60;99.90;;;;;;5032144;28;20065;-53
2024/02/13 10:13:40;;;;;;;10.05;2.92;;;7.80;99.90;;;;;;5032057;28;20472;-53
2024/02/13 10:16:18;;;;;;;14.25;2.40;;;7.80;99.90;;;;;;5031976;28;20391;-54
2024/02/13 10:18:44;;;;;;;6.97;2.08;;;7.80;99.90;;;;;;5033175;28;20033;-56
2024/02/13 10:21:11;;;;;;;3.05;2.28;;;7.90;99.90;;;;;;5044182;28;20029;-58
2024/02/13 10:23:38;;;;;;;6.22;2.38;;;8.00;99.90;;;;;;5052179;28;20401;-53
2024/02/13 10:26:12;;;;;;;2.85;1.85;;;8.10;99.90;;;;;;5041778;28;20078;-54
2024/02/13 10:28:44;;;;;;;5.50;2.13;;;8.20;99.90;;;;;;5046232;28;20029;-54
2024/02/13 10:31:09;;;;;;;7.60;2.92;;;8.20;99.90;;;;;;5038162;28;20036;-56
2024/02/13 10:33:41;;;;;;;3.75;2.45;;;8.30;99.90;;;;;;5046249;28;20017;-55
2024/02/13 10:36:08;;;;;;;14.77;2.88;;;8.40;99.90;;;;;;5037232;28;20489;-54
2024/02/13 10:38:36;;;;;;;7.55;2.08;;;8.40;99.90;;;;;;5040751;28;20389;-55
2024/02/13 10:41:08;;;;;;;5.97;2.25;;;8.50;99.90;;;;;;5042314;28;20588;-54
2024/02/13 10:43:34;;;;;;;5.88;2.05;;;8.50;99.90;;;;;;5036036;28;20037;-52
2024/02/13 10:48:56;;;;;;;8.00;2.17;;;8.60;99.90;;;;;;5051410;28;20044;-55
2024/02/13 10:51:23;;;;;;;6.07;2.55;;;8.60;99.90;;;;;;5036799;28;20462;-52
2024/02/13 10:53:49;;;;;;;3.53;2.20;;;8.60;99.90;;;;;;5054183;28;20051;-52
2024/02/13 10:56:14;;;;;;;4.28;1.63;;;8.70;99.90;;;;;;5039288;28;20021;-54
2024/02/13 10:58:43;;;;;;;7.50;2.38;;;8.80;99.90;;;;;;5034974;28;20364;-54
2024/02/13 11:01:11;;;;;;;9.10;2.15;;;8.90;99.90;;;;;;5038116;28;20367;-55
2024/02/13 11:03:38;;;;;;;3.83;1.73;;;9.00;99.90;;;;;;5051024;28;20525;-54
2024/02/13 11:06:05;;;;;;;10.95;2.45;;;9.00;99.90;;;;;;5035243;28;20359;-56
2024/02/13 11:08:31;;;;;;;4.65;2.20;;;9.00;99.90;;;;;;5034140;28;20486;-54
2024/02/13 11:11:03;;;;;;;6.70;2.17;;;9.10;99.90;;;;;;5035000;28;20076;-54
2024/02/13 11:13:31;;;;;;;2.88;1.70;;;9.20;99.90;;;;;;5053855;28;20017;-53
2024/02/13 11:15:57;;;;;;;5.57;2.25;;;9.30;99.90;;;;;;5034675;28;20474;-51
2024/02/13 11:18:24;;;;;;;12.98;2.10;;;9.30;99.90;;;;;;5043104;28;20018;-56
2024/02/13 11:20:53;;;;;;;11.15;2.53;;;9.20;99.90;;;;;;5034753;28;20393;-54
2024/02/13 11:23:22;;;;;;;8.35;1.73;;;9.30;99.90;;;;;;5034643;28;20078;-53
2024/02/13 11:25:58;;;;;;;2.88;1.70;;;9.20;99.90;;;;;;5041456;28;20111;-53
2024/02/13 11:28:38;;;;;;;9.68;2.13;;;9.30;99.90;;;;;;5038559;28;20445;-54
2024/02/13 11:31:29;;;;;;;4.60;2.08;;;9.30;99.90;;;;;;5034325;28;20120;-54
2024/02/13 11:34:05;;;;;;;2.65;1.55;;;9.40;99.90;;;;;;5036063;28;20022;-49
2024/02/13 11:36:34;;;;;;;6.18;2.10;;;9.40;99.90;;;;;;5041497;28;20032;-53
2024/02/13 11:39:05;;;;;;;2.60;1.55;;;9.40;99.90;;;;;;5052181;28;20090;-52
2024/02/13 11:41:34;;;;;;;5.18;1.52;;;9.60;99.90;;;;;;5048816;28;20032;-53
2024/02/13 11:44:07;;;;;;;3.45;1.95;;;9.70;99.90;;;;;;5034128;28;20116;-38
2024/02/13 11:46:37;;;;;;;9.55;1.55;;;9.80;99.90;;;;;;5034115;28;20103;-39
2024/02/13 11:49:07;;;;;;;6.50;2.00;;;9.90;99.90;;;;;;5034935;28;20485;-41
2024/02/13 11:51:34;;;;;;;6.47;2.15;;;10.00;99.90;;;;;;5037196;28;20030;-37
2024/02/13 11:54:00;;;;;;;1.80;1.60;;;10.10;99.90;;;;;;5034094;28;20470;-38
2024/02/13 11:56:26;;;;;;;3.90;2.45;;;10.30;99.90;;;;;;5034256;28;20017;-37
2024/02/13 11:58:56;;;;;;;6.00;2.10;;;10.40;99.90;;;;;;5034986;28;20395;-38
2024/02/13 12:01:25;;;;;;;9.57;2.67;;;10.40;99.90;;;;;;5034100;28;20439;-43
2024/02/13 12:03:52;;;;;;;7.20;2.40;;;10.40;99.90;;;;;;5034115;28;20367;-39
2024/02/13 12:06:19;;;;;;;8.13;1.80;;;10.40;99.90;;;;;;5034176;28;20148;-39
2024/02/13 12:08:45;;;;;;;4.32;1.60;;;10.50;99.90;;;;;;5034702;28;20021;-39
2024/02/13 12:11:11;;;;;;;3.30;1.98;;;10.40;99.90;;;;;;5047550;28;20532;-38
2024/02/13 12:13:37;;;;;;;2.30;1.77;;;10.40;99.90;;;;;;5051917;28;20461;-65
2024/02/13 12:16:04;;;;;;;8.07;1.85;;;10.40;99.90;;;;;;5053647;28;20052;-39
2024/02/13 12:18:30;;;;;;;2.13;1.70;;;10.50;99.90;;;;;;5053182;28;20021;-43
2024/02/13 12:20:57;;;;;;;5.63;1.77;;;10.60;99.90;;;;;;5051901;28;20036;-63
2024/02/13 12:23:23;;;;;;;4.28;1.88;;;10.70;99.90;;;;;;5052400;28;20052;-57
2024/02/13 12:26:02;;;;;;;5.05;1.48;;;10.70;99.90;;;;;;5044837;28;20034;-55
2024/02/13 12:28:32;;;;;;;3.28;1.42;;;10.70;99.90;;;;;;5034136;28;20030;-55
2024/02/13 12:31:02;;;;;;;4.25;1.40;;;10.70;99.90;;;;;;5051524;28;20113;-54
2024/02/13 12:33:28;;;;;;;3.92;1.23;;;10.70;99.90;;;;;;5053671;28;20497;-52
2024/02/13 12:36:08;;;;;;;2.15;1.23;;;10.80;99.90;;;;;;5040183;28;20052;-55
2024/02/13 12:38:38;;;;;;;2.20;1.40;;;10.90;99.90;;;;;;5033401;28;20021;-54
2024/02/13 12:41:04;;;;;;;1.67;1.20;;;10.80;99.90;;;;;;5041724;28;20029;-53
2024/02/13 12:43:30;;;;;;;5.50;2.33;;;10.90;99.90;;;;;;5033685;28;20449;-55
2024/02/13 12:46:02;;;;;;;4.20;1.77;;;10.90;99.90;;;;;;5042290;28;20025;-52
2024/02/13 12:48:32;;;;;;;5.97;1.60;;;11.00;99.90;;;;;;5051838;28;20029;-49
2024/02/13 12:51:08;;;;;;;8.43;1.42;;;11.00;99.90;;;;;;5037659;28;20021;-54
2024/02/13 12:53:35;;;;;;;8.82;1.80;;;11.00;99.90;;;;;;5038484;28;20623;-38
2024/02/13 12:56:03;;;;;;;7.85;1.95;;;10.90;99.90;;;;;;5053060;28;20482;-38